createdAt,value
2023-04-17T00:00:37.786Z,95814.63
2023-04-17T00:03:05.649Z,95811.19
2023-04-17T00:05:33.739Z,95816.25
2023-04-17T00:08:01.531Z,95813.00
2023-04-17T00:10:29.157Z,95811.00
2023-04-17T00:12:57.055Z,95817.75
2023-04-17T00:15:24.789Z,95817.25
2023-04-17T00:17:53.885Z,95817.72
2023-04-17T00:20:21.535Z,95814.94
2023-04-17T00:22:49.390Z,95812.69
2023-04-17T00:25:16.976Z,95807.06
2023-04-17T00:27:44.821Z,95808.41
2023-04-17T00:30:12.999Z,95817.28
2023-04-17T00:32:40.783Z,95807.56
2023-04-17T00:35:10.476Z,95810.38
2023-04-17T00:37:38.204Z,95810.38
2023-04-17T00:40:06.840Z,95808.06
2023-04-17T00:42:34.626Z,95806.09
2023-04-17T00:45:02.244Z,95809.41
2023-04-17T00:47:30.145Z,95803.28
2023-04-17T00:49:58.349Z,95802.78
2023-04-17T00:52:30.833Z,95808.38
2023-04-17T00:54:59.818Z,95804.09
2023-04-17T00:57:28.055Z,95806.75
2023-04-17T00:59:57.700Z,95815.44
2023-04-17T01:02:26.351Z,95798.69
2023-04-17T01:04:54.083Z,95809.69
2023-04-17T01:07:22.209Z,95802.13
2023-04-17T01:09:51.172Z,95799.50
2023-04-17T01:12:20.592Z,95797.88
2023-04-17T01:14:50.495Z,95803.13
2023-04-17T01:17:19.481Z,95796.38
2023-04-17T01:19:48.304Z,95794.25
2023-04-17T01:22:17.263Z,95795.88
2023-04-17T01:24:46.782Z,95798.50
2023-04-17T01:27:15.225Z,95791.28
2023-04-17T01:29:45.377Z,95792.25
2023-04-17T01:32:13.229Z,95790.50
2023-04-17T01:34:40.823Z,95795.06
2023-04-17T01:37:08.442Z,95799.84
2023-04-17T01:39:37.319Z,95792.94
2023-04-17T01:42:06.652Z,95799.84
2023-04-17T01:44:34.397Z,95805.91
2023-04-17T01:47:02.034Z,95803.13
2023-04-17T01:49:30.706Z,95807.38
2023-04-17T01:51:58.326Z,95806.75
2023-04-17T01:54:26.550Z,95808.22
2023-04-17T01:56:54.190Z,95811.66
2023-04-17T01:59:24.137Z,95812.97
2023-04-17T02:01:52.541Z,95796.91
2023-04-17T02:04:20.636Z,95802.47
2023-04-17T02:06:48.270Z,95804.13
2023-04-17T02:09:17.739Z,95809.06
2023-04-17T02:11:45.726Z,95803.63
2023-04-17T02:14:13.441Z,95805.13
2023-04-17T02:16:45.984Z,95798.06
2023-04-17T02:19:14.044Z,95800.69
2023-04-17T02:21:42.156Z,95796.25
2023-04-17T02:24:10.132Z,95789.00
2023-04-17T02:26:37.759Z,95797.06
2023-04-17T02:29:06.335Z,95794.25
2023-04-17T02:31:34.113Z,95797.72
2023-04-17T02:34:03.475Z,95798.69
2023-04-17T02:36:31.312Z,95798.06
2023-04-17T02:38:59.135Z,95799.69
2023-04-17T02:41:26.768Z,95803.13
2023-04-17T02:43:55.088Z,95802.44
2023-04-17T02:46:22.722Z,95806.06
2023-04-17T02:48:50.338Z,95809.69
2023-04-17T02:51:19.410Z,95799.19
2023-04-17T02:53:49.062Z,95809.38
2023-04-17T02:56:16.774Z,95797.53
2023-04-17T02:58:45.547Z,95798.88
2023-04-17T03:01:13.368Z,95789.66
2023-04-17T03:03:45.136Z,95796.38
2023-04-17T03:06:15.381Z,95790.47
2023-04-17T03:08:44.540Z,95789.47
2023-04-17T03:11:12.168Z,95789.81
2023-04-17T03:13:40.052Z,95792.78
2023-04-17T03:16:08.406Z,95794.59
2023-04-17T03:18:40.942Z,95794.09
2023-04-17T03:21:09.027Z,95795.06
2023-04-17T03:23:37.066Z,95787.00
2023-04-17T03:26:08.868Z,95791.94
2023-04-17T03:28:37.436Z,95792.78
2023-04-17T03:31:06.470Z,95798.50
2023-04-17T03:33:35.112Z,95797.53
2023-04-17T03:36:03.128Z,95806.88
2023-04-17T03:38:31.476Z,95798.69
2023-04-17T03:40:59.346Z,95802.31
2023-04-17T03:43:29.012Z,95804.13
2023-04-17T03:45:56.879Z,95809.53
2023-04-17T03:48:24.740Z,95807.72
2023-04-17T03:50:53.165Z,95806.75
2023-04-17T03:53:21.236Z,95805.41
2023-04-17T03:55:50.160Z,95815.94
2023-04-17T03:58:29.368Z,95809.50
2023-04-17T04:00:58.920Z,95804.75
2023-04-17T04:03:31.281Z,95808.38
2023-04-17T04:06:00.251Z,95810.00
2023-04-17T04:08:27.948Z,95812.31
2023-04-17T04:10:55.998Z,95812.28
2023-04-17T04:13:35.118Z,95812.13
2023-04-17T04:16:04.672Z,95821.81
2023-04-17T04:18:34.884Z,95815.25
2023-04-17T04:21:03.249Z,95817.53
2023-04-17T04:23:37.559Z,95824.09
2023-04-17T04:26:05.386Z,95819.19
2023-04-17T04:28:40.599Z,95821.19
2023-04-17T04:31:18.675Z,95818.22
2023-04-17T04:33:47.704Z,95817.75
2023-04-17T04:36:20.553Z,95815.59
2023-04-17T04:38:53.651Z,95822.84
2023-04-17T04:41:29.868Z,95817.56
2023-04-17T04:43:59.686Z,95812.28
2023-04-17T04:46:28.273Z,95823.47
2023-04-17T04:48:56.604Z,95819.84
2023-04-17T04:51:26.526Z,95819.53
2023-04-17T04:53:54.927Z,95827.09
2023-04-17T04:56:24.168Z,95826.44
2023-04-17T04:58:51.910Z,95832.50
2023-04-17T05:01:22.613Z,95827.41
2023-04-17T05:03:50.939Z,95839.59
2023-04-17T05:06:24.018Z,95838.59
2023-04-17T05:08:58.718Z,95836.25
2023-04-17T05:11:26.864Z,95848.59
2023-04-17T05:13:54.600Z,95847.44
2023-04-17T05:16:28.293Z,95853.53
2023-04-17T05:18:56.842Z,95850.72
2023-04-17T05:21:39.754Z,95852.00
2023-04-17T05:24:09.220Z,95857.28
2023-04-17T05:26:36.991Z,95860.56
2023-04-17T05:29:06.129Z,95858.59
2023-04-17T05:31:36.310Z,95860.56
2023-04-17T05:34:08.886Z,95859.25
2023-04-17T05:36:36.747Z,95862.22
2023-04-17T05:39:05.987Z,95866.66
2023-04-17T05:41:33.715Z,95866.31
2023-04-17T05:44:01.386Z,95861.69
2023-04-17T05:46:29.166Z,95863.16
2023-04-17T05:48:58.283Z,95867.09
2023-04-17T05:51:26.203Z,95868.38
2023-04-17T05:53:54.232Z,95872.19
2023-04-17T05:56:23.309Z,95869.38
2023-04-17T05:58:50.910Z,95872.47
2023-04-17T06:01:22.881Z,95867.88
2023-04-17T06:03:53.906Z,95869.53
2023-04-17T06:06:28.484Z,95877.25
2023-04-17T06:08:58.719Z,95882.81
2023-04-17T06:11:26.333Z,95882.81
2023-04-17T06:13:54.609Z,95882.81
2023-04-17T06:16:22.826Z,95882.50
2023-04-17T06:18:50.909Z,95882.16
2023-04-17T06:21:18.804Z,95880.50
2023-04-17T06:23:47.720Z,95887.25
2023-04-17T06:26:17.917Z,95888.72
2023-04-17T06:28:45.541Z,95885.75
2023-04-17T06:31:14.037Z,95890.84
2023-04-17T06:33:41.677Z,95887.03
2023-04-17T06:36:09.953Z,95890.84
2023-04-17T06:38:47.774Z,95890.00
2023-04-17T06:41:17.371Z,95892.06
2023-04-17T06:43:45.016Z,95885.38
2023-04-17T06:46:16.051Z,95877.19
2023-04-17T06:48:43.649Z,95891.13
2023-04-17T06:51:11.243Z,95887.31
2023-04-17T06:53:38.847Z,95883.03
2023-04-17T06:56:08.073Z,95878.91
2023-04-17T06:58:42.204Z,95885.22
2023-04-17T07:01:09.819Z,95884.88
2023-04-17T07:03:37.849Z,95890.09
2023-04-17T07:06:05.831Z,95896.66
2023-04-17T07:08:33.785Z,95883.56
2023-04-17T07:11:02.345Z,95884.66
2023-04-17T07:13:33.261Z,95891.69
2023-04-17T07:16:01.394Z,95896.13
2023-04-17T07:18:30.316Z,95900.16
2023-04-17T07:20:57.923Z,95899.28
2023-04-17T07:23:25.899Z,95899.47
2023-04-17T07:25:53.522Z,95898.13
2023-04-17T07:28:21.448Z,95895.97
2023-04-17T07:30:50.383Z,95894.50
2023-04-17T07:33:18.116Z,95897.13
2023-04-17T07:35:45.721Z,95902.13
2023-04-17T07:38:13.590Z,95894.38
2023-04-17T07:40:41.253Z,95903.50
2023-04-17T07:43:08.969Z,95907.88
2023-04-17T07:45:38.553Z,95907.47
2023-04-17T07:48:09.587Z,95906.97
2023-04-17T07:50:37.314Z,95909.59
2023-04-17T07:53:05.052Z,95914.16
2023-04-17T07:55:33.081Z,95909.25
2023-04-17T07:58:03.443Z,95908.34
2023-04-17T08:00:31.080Z,95912.72
2023-04-17T08:02:59.395Z,95911.91
2023-04-17T08:05:28.546Z,95916.81
2023-04-17T08:07:56.443Z,95913.75
2023-04-17T08:10:24.058Z,95927.00
2023-04-17T08:12:51.933Z,95926.50
2023-04-17T08:15:19.685Z,95919.09
2023-04-17T08:17:47.451Z,95926.88
2023-04-17T08:20:15.086Z,95924.47
2023-04-17T08:22:45.887Z,95925.38
2023-04-17T08:25:14.360Z,95934.13
2023-04-17T08:27:43.550Z,95935.56
2023-04-17T08:30:14.936Z,95929.53
2023-04-17T08:32:46.480Z,95930.44
2023-04-17T08:35:17.042Z,95931.59
2023-04-17T08:37:47.385Z,95930.31
2023-04-17T08:40:15.947Z,95930.00
2023-04-17T08:42:44.396Z,95928.66
2023-04-17T08:45:14.013Z,95925.44
2023-04-17T08:47:42.975Z,95922.41
2023-04-17T08:50:12.434Z,95929.59
2023-04-17T08:52:42.555Z,95925.13
2023-04-17T08:55:13.919Z,95918.50
2023-04-17T08:57:59.225Z,95922.72
2023-04-17T09:00:28.651Z,95914.47
2023-04-17T09:02:57.997Z,95919.88
2023-04-17T09:05:30.117Z,95912.91
2023-04-17T09:08:10.148Z,95916.28
2023-04-17T09:10:40.204Z,95910.84
2023-04-17T09:13:08.530Z,95914.53
2023-04-17T09:15:37.200Z,95914.38
2023-04-17T09:18:06.364Z,95913.09
2023-04-17T09:20:48.826Z,95905.38
2023-04-17T09:23:16.952Z,95912.31
2023-04-17T09:25:46.111Z,95898.63
2023-04-17T09:28:16.224Z,95906.84
2023-04-17T09:30:44.422Z,95909.94
2023-04-17T09:33:13.034Z,95902.66
2023-04-17T09:35:40.700Z,95906.28
2023-04-17T09:38:08.612Z,95902.69
2023-04-17T09:40:40.608Z,95904.75
2023-04-17T09:43:10.982Z,95898.84
2023-04-17T09:45:42.923Z,95901.44
2023-04-17T09:48:12.222Z,95907.00
2023-04-17T09:50:40.503Z,95903.72
2023-04-17T09:53:09.354Z,95906.44
2023-04-17T09:55:37.993Z,95896.44
2023-04-17T09:58:07.983Z,95902.44
2023-04-17T10:00:38.611Z,95904.69
2023-04-17T10:03:08.335Z,95904.19
2023-04-17T10:05:36.779Z,95898.53
2023-04-17T10:08:05.325Z,95890.72
2023-04-17T10:10:34.731Z,95898.81
2023-04-17T10:13:04.223Z,95889.91
2023-04-17T10:15:33.912Z,95885.09
2023-04-17T10:18:21.459Z,95885.34
2023-04-17T10:20:50.062Z,95891.44
2023-04-17T10:23:36.675Z,95885.13
2023-04-17T10:26:43.108Z,95884.63
2023-04-17T10:29:12.768Z,95885.22
2023-04-17T10:32:25.841Z,95881.03
2023-04-17T10:34:57.014Z,95883.91
2023-04-17T10:38:06.081Z,95876.03
2023-04-17T10:40:35.557Z,95867.78
2023-04-17T10:43:05.139Z,95870.91
2023-04-17T10:45:55.378Z,95872.16
2023-04-17T10:48:27.769Z,95870.88
2023-04-17T10:50:57.563Z,95864.16
2023-04-17T10:53:42.477Z,95865.28
2023-04-17T10:56:11.604Z,95864.84
2023-04-17T10:58:40.812Z,95855.84
2023-04-17T11:01:12.336Z,95861.19
2023-04-17T11:03:41.752Z,95864.19
2023-04-17T11:06:13.188Z,95863.28
2023-04-17T11:08:42.981Z,95857.03
2023-04-17T11:11:12.280Z,95857.03
2023-04-17T11:13:41.968Z,95857.31
2023-04-17T11:16:10.523Z,95851.53
2023-04-17T11:18:38.722Z,95853.88
2023-04-17T11:21:06.834Z,95844.94
2023-04-17T11:23:36.168Z,95853.19
2023-04-17T11:26:03.935Z,95844.81
2023-04-17T11:28:31.769Z,95848.66
2023-04-17T11:30:59.473Z,95851.59
2023-04-17T11:33:27.220Z,95850.06
2023-04-17T11:35:55.392Z,95850.66
2023-04-17T11:38:24.329Z,95846.13
2023-04-17T11:40:54.862Z,95855.06
2023-04-17T11:43:24.246Z,95840.06
2023-04-17T11:45:53.297Z,95845.97
2023-04-17T11:48:23.388Z,95858.31
2023-04-17T11:50:54.972Z,95846.66
2023-04-17T11:53:22.569Z,95840.75
2023-04-17T11:56:10.424Z,95843.69
2023-04-17T11:58:50.971Z,95849.16
2023-04-17T12:01:20.529Z,95845.41
2023-04-17T12:03:48.813Z,95835.16
2023-04-17T12:06:16.784Z,95839.34
2023-04-17T12:08:47.070Z,95838.00
2023-04-17T12:11:24.607Z,95838.47
2023-04-17T12:13:54.060Z,95839.63
2023-04-17T12:16:21.993Z,95832.66
2023-04-17T12:18:49.610Z,95828.31
2023-04-17T12:21:17.257Z,95822.03
2023-04-17T12:23:44.851Z,95838.81
2023-04-17T12:26:12.825Z,95824.44
2023-04-17T12:28:40.572Z,95827.25
2023-04-17T12:31:09.779Z,95834.91
2023-04-17T12:33:37.482Z,95825.16
2023-04-17T12:36:06.413Z,95825.53
2023-04-17T12:38:34.107Z,95819.72
2023-04-17T12:41:01.910Z,95820.78
2023-04-17T12:43:29.518Z,95816.69
2023-04-17T12:45:58.379Z,95815.50
2023-04-17T12:48:27.417Z,95809.47
2023-04-17T12:50:55.301Z,95809.53
2023-04-17T12:53:22.888Z,95810.16
2023-04-17T12:55:50.556Z,95815.25
2023-04-17T12:58:18.301Z,95810.03
2023-04-17T13:00:46.505Z,95805.53
2023-04-17T13:03:14.182Z,95805.53
2023-04-17T13:05:43.417Z,95808.97
2023-04-17T13:08:14.865Z,95813.53
2023-04-17T13:10:42.762Z,95806.91
2023-04-17T13:13:10.868Z,95816.56
2023-04-17T13:15:38.595Z,95812.50
2023-04-17T13:18:06.327Z,95810.97
2023-04-17T13:20:33.995Z,95814.03
2023-04-17T13:23:02.918Z,95814.03
2023-04-17T13:25:30.985Z,95813.47
2023-04-17T13:27:58.666Z,95811.13
2023-04-17T13:30:26.327Z,95814.16
2023-04-17T13:32:53.983Z,95814.03
2023-04-17T13:35:21.721Z,95816.41
2023-04-17T13:37:49.300Z,95804.97
2023-04-17T13:40:18.339Z,95805.31
2023-04-17T13:42:45.937Z,95796.56
2023-04-17T13:45:13.586Z,95798.34
2023-04-17T13:47:41.366Z,95806.69
2023-04-17T13:50:10.523Z,95806.38
2023-04-17T13:52:38.092Z,95813.19
2023-04-17T13:55:07.664Z,95816.28
2023-04-17T13:57:36.952Z,95815.00
2023-04-17T14:00:05.329Z,95815.69
2023-04-17T14:02:33.043Z,95819.78
2023-04-17T14:05:00.963Z,95823.44
2023-04-17T14:07:30.121Z,95827.28
2023-04-17T14:09:57.736Z,95824.06
2023-04-17T14:12:25.423Z,95832.94
2023-04-17T14:14:55.593Z,95826.03
2023-04-17T14:17:24.164Z,95817.59
2023-04-17T14:19:52.403Z,95812.28
2023-04-17T14:22:20.084Z,95823.09
2023-04-17T14:24:47.638Z,95829.34
2023-04-17T14:27:15.219Z,95825.94
2023-04-17T14:29:42.960Z,95810.09
2023-04-17T14:32:12.005Z,95810.56
2023-04-17T14:34:39.555Z,95812.66
2023-04-17T14:37:07.317Z,95813.28
2023-04-17T14:39:35.012Z,95817.59
2023-04-17T14:42:02.737Z,95813.56
2023-04-17T14:44:30.344Z,95820.94
2023-04-17T14:46:58.331Z,95817.81
2023-04-17T14:49:27.347Z,95815.03
2023-04-17T14:51:55.027Z,95817.81
2023-04-17T14:54:22.757Z,95818.22
2023-04-17T14:56:50.684Z,95814.00
2023-04-17T14:59:18.385Z,95822.03
2023-04-17T15:01:47.075Z,95821.25
2023-04-17T15:04:15.134Z,95819.44
2023-04-17T15:06:44.255Z,95810.19
2023-04-17T15:09:12.120Z,95810.94
2023-04-17T15:11:39.856Z,95809.31
2023-04-17T15:14:07.531Z,95806.00
2023-04-17T15:16:35.414Z,95810.00
2023-04-17T15:19:03.089Z,95808.25
2023-04-17T15:21:31.104Z,95804.69
2023-04-17T15:24:00.055Z,95806.69
2023-04-17T15:26:27.972Z,95802.75
2023-04-17T15:28:55.541Z,95806.88
2023-04-17T15:31:23.210Z,95807.72
2023-04-17T15:33:51.263Z,95815.06
2023-04-17T15:36:18.842Z,95817.06
2023-04-17T15:38:46.551Z,95810.28
2023-04-17T15:41:15.620Z,95805.47
2023-04-17T15:43:43.395Z,95802.38
2023-04-17T15:46:11.219Z,95801.84
2023-04-17T15:48:39.179Z,95802.94
2023-04-17T15:51:07.104Z,95803.03
2023-04-17T15:53:34.892Z,95800.88
2023-04-17T15:56:02.522Z,95800.47
2023-04-17T15:58:31.618Z,95800.44
2023-04-17T16:00:59.215Z,95793.66
2023-04-17T16:03:27.004Z,95795.84
2023-04-17T16:05:54.850Z,95789.25
2023-04-17T16:08:22.551Z,95781.19
2023-04-17T16:10:50.200Z,95791.63
2023-04-17T16:13:17.882Z,95790.94
2023-04-17T16:15:46.835Z,95777.72
2023-04-17T16:18:14.551Z,95790.22
2023-04-17T16:20:42.160Z,95790.06
2023-04-17T16:23:09.839Z,95782.81
2023-04-17T16:25:37.438Z,95783.31
2023-04-17T16:28:05.154Z,95787.56
2023-04-17T16:30:33.382Z,95788.84
2023-04-17T16:33:02.680Z,95786.44
2023-04-17T16:35:30.711Z,95782.59
2023-04-17T16:37:58.269Z,95786.78
2023-04-17T16:40:26.531Z,95792.91
2023-04-17T16:42:54.404Z,95787.91
2023-04-17T16:45:22.112Z,95802.53
2023-04-17T16:47:49.811Z,95795.56
2023-04-17T16:50:18.902Z,95800.38
2023-04-17T16:52:46.600Z,95798.31
2023-04-17T16:55:14.184Z,95799.53
2023-04-17T16:57:43.662Z,95807.22
2023-04-17T17:00:12.550Z,95810.88
2023-04-17T17:02:40.406Z,95817.41
2023-04-17T17:05:09.203Z,95823.69
2023-04-17T17:07:38.251Z,95820.94
2023-04-17T17:10:07.097Z,95827.63
2023-04-17T17:12:34.849Z,95823.19
2023-04-17T17:15:03.656Z,95831.03
2023-04-17T17:17:31.673Z,95835.16
2023-04-17T17:20:00.083Z,95841.72
2023-04-17T17:22:27.678Z,95835.59
2023-04-17T17:24:56.735Z,95833.75
2023-04-17T17:27:24.295Z,95832.34
2023-04-17T17:29:55.328Z,95844.25
2023-04-17T17:32:23.252Z,95840.75
2023-04-17T17:34:52.584Z,95846.69
2023-04-17T17:37:20.408Z,95848.34
2023-04-17T17:39:48.213Z,95854.41
2023-04-17T17:42:17.120Z,95853.13
2023-04-17T17:44:44.807Z,95852.72
2023-04-17T17:47:12.350Z,95855.31
2023-04-17T17:49:40.091Z,95861.59
2023-04-17T17:52:07.673Z,95875.78
2023-04-17T17:54:37.035Z,95884.50
2023-04-17T17:57:04.971Z,95882.03
2023-04-17T17:59:34.482Z,95883.09
2023-04-17T18:02:02.642Z,95888.44
2023-04-17T18:04:30.460Z,95882.69
2023-04-17T18:06:58.146Z,95894.34
2023-04-17T18:09:25.805Z,95898.28
2023-04-17T18:11:53.406Z,95895.75
2023-04-17T18:14:21.082Z,95900.97
2023-04-17T18:16:50.306Z,95892.13
2023-04-17T18:19:18.205Z,95900.81
2023-04-17T18:21:47.294Z,95893.59
2023-04-17T18:24:15.743Z,95894.22
2023-04-17T18:26:43.400Z,95901.59
2023-04-17T18:29:11.127Z,95891.41
2023-04-17T18:31:38.784Z,95894.41
2023-04-17T18:34:07.881Z,95881.84
2023-04-17T18:36:35.574Z,95884.56
2023-04-17T18:39:03.263Z,95880.56
2023-04-17T18:41:30.806Z,95869.72
2023-04-17T18:43:58.361Z,95883.50
2023-04-17T18:46:27.051Z,95880.09
2023-04-17T18:48:54.934Z,95880.84
2023-04-17T18:51:24.050Z,95882.84
2023-04-17T18:53:51.729Z,95886.28
2023-04-17T18:56:19.336Z,95892.84
2023-04-17T18:58:46.942Z,95893.03
2023-04-17T19:01:14.540Z,95894.03
2023-04-17T19:03:42.142Z,95895.47
2023-04-17T19:06:09.855Z,95891.69
2023-04-17T19:08:39.474Z,95897.41
2023-04-17T19:11:07.103Z,95898.72
2023-04-17T19:13:34.789Z,95899.16
2023-04-17T19:16:02.441Z,95897.31
2023-04-17T19:18:30.152Z,95891.03
2023-04-17T19:20:57.730Z,95889.41
2023-04-17T19:23:25.685Z,95892.03
2023-04-17T19:25:55.116Z,95893.06
2023-04-17T19:28:22.939Z,95888.84
2023-04-17T19:30:50.578Z,95886.28
2023-04-17T19:33:18.593Z,95881.28
2023-04-17T19:35:46.205Z,95877.53
2023-04-17T19:38:16.245Z,95878.91
2023-04-17T19:40:48.701Z,95883.06
2023-04-17T19:43:17.853Z,95883.53
2023-04-17T19:45:45.564Z,95886.00
2023-04-17T19:48:13.194Z,95883.81
2023-04-17T19:50:40.780Z,95883.19
2023-04-17T19:53:08.343Z,95883.69
2023-04-17T19:55:36.062Z,95888.97
2023-04-17T19:58:03.599Z,95886.25
2023-04-17T20:00:32.771Z,95884.13
2023-04-17T20:03:00.449Z,95880.75
2023-04-17T20:05:28.418Z,95887.03
2023-04-17T20:07:56.041Z,95880.75
2023-04-17T20:10:24.007Z,95879.28
2023-04-17T20:12:51.572Z,95883.13
2023-04-17T20:15:21.909Z,95880.19
2023-04-17T20:17:51.003Z,95873.25
2023-04-17T20:20:18.847Z,95879.00
2023-04-17T20:22:46.451Z,95875.72
2023-04-17T20:25:14.849Z,95881.38
2023-04-17T20:27:42.429Z,95876.28
2023-04-17T20:30:10.832Z,95878.91
2023-04-17T20:32:38.553Z,95878.91
2023-04-17T20:35:08.334Z,95876.91
2023-04-17T20:37:35.925Z,95878.91
2023-04-17T20:40:05.836Z,95874.63
2023-04-17T20:42:33.411Z,95879.72
2023-04-17T20:45:01.283Z,95871.50
2023-04-17T20:47:28.912Z,95875.03
2023-04-17T20:49:56.619Z,95878.66
2023-04-17T20:52:25.614Z,95875.03
2023-04-17T20:54:53.262Z,95879.31
2023-04-17T20:57:20.832Z,95886.56
2023-04-17T20:59:48.596Z,95878.66
2023-04-17T21:02:16.791Z,95878.97
2023-04-17T21:04:44.926Z,95870.56
2023-04-17T21:07:12.651Z,95864.16
2023-04-17T21:09:41.844Z,95870.25
2023-04-17T21:12:09.845Z,95874.69
2023-04-17T21:14:37.680Z,95871.06
2023-04-17T21:17:05.686Z,95870.56
2023-04-17T21:19:36.208Z,95861.69
2023-04-17T21:22:04.088Z,95862.84
2023-04-17T21:24:31.644Z,95855.94
2023-04-17T21:27:01.459Z,95864.47
2023-04-17T21:29:29.851Z,95867.78
2023-04-17T21:31:57.849Z,95865.78
2023-04-17T21:34:25.932Z,95873.75
2023-04-17T21:36:54.781Z,95871.38
2023-04-17T21:39:22.561Z,95864.47
2023-04-17T21:41:50.363Z,95866.13
2023-04-17T21:44:19.452Z,95868.13
2023-04-17T21:46:47.245Z,95870.00
2023-04-17T21:49:14.922Z,95862.22
2023-04-17T21:51:42.700Z,95862.59
2023-04-17T21:54:10.662Z,95860.59
2023-04-17T21:56:38.592Z,95856.13
2023-04-17T21:59:06.148Z,95853.91
2023-04-17T22:01:35.256Z,95855.38
2023-04-17T22:04:03.038Z,95852.38
2023-04-17T22:06:30.857Z,95857.00
2023-04-17T22:08:58.419Z,95847.84
2023-04-17T22:11:26.115Z,95858.38
2023-04-17T22:13:53.662Z,95856.91
2023-04-17T22:16:21.498Z,95847.69
2023-04-17T22:18:50.396Z,95845.25
2023-04-17T22:21:18.106Z,95852.16
2023-04-17T22:23:45.888Z,95847.25
2023-04-17T22:26:13.533Z,95848.25
2023-04-17T22:28:41.091Z,95846.25
2023-04-17T22:31:08.873Z,95847.56
2023-04-17T22:33:36.562Z,95850.06
2023-04-17T22:36:05.854Z,95850.38
2023-04-17T22:38:33.421Z,95849.56
2023-04-17T22:41:01.325Z,95851.22
2023-04-17T22:43:28.895Z,95850.94
2023-04-17T22:45:56.778Z,95852.91
2023-04-17T22:48:24.721Z,95855.19
2023-04-17T22:50:52.749Z,95849.38
2023-04-17T22:53:22.411Z,95849.22
2023-04-17T22:56:00.853Z,95850.56
2023-04-17T22:58:28.423Z,95845.94
2023-04-17T23:00:55.950Z,95850.28
2023-04-17T23:03:23.814Z,95856.19
2023-04-17T23:05:51.503Z,95852.28
2023-04-17T23:08:19.310Z,95847.34
2023-04-17T23:10:48.508Z,95842.06
2023-04-17T23:13:16.112Z,95845.19
2023-04-17T23:15:43.799Z,95848.81
2023-04-17T23:18:11.562Z,95845.25
2023-04-17T23:20:39.272Z,95845.25
2023-04-17T23:23:06.818Z,95839.78
2023-04-17T23:25:34.662Z,95843.25
2023-04-17T23:28:03.562Z,95836.66
2023-04-17T23:30:31.353Z,95837.84
2023-04-17T23:32:59.061Z,95835.66
2023-04-17T23:35:26.794Z,95841.25
2023-04-17T23:37:54.380Z,95838.28
2023-04-17T23:40:22.175Z,95830.00
2023-04-17T23:42:49.768Z,95829.00
2023-04-17T23:45:18.875Z,95828.38
2023-04-17T23:47:46.760Z,95825.72
2023-04-17T23:50:14.720Z,95827.19
2023-04-17T23:52:42.412Z,95813.50
2023-04-17T23:55:10.136Z,95822.41
2023-04-17T23:57:38.527Z,95812.50
